createdAt,value
2023-03-03T00:01:46.955Z,66.65
2023-03-03T00:04:14.498Z,66.92
2023-03-03T00:06:41.964Z,67.36
2023-03-03T00:09:09.437Z,67.29
2023-03-03T00:11:36.898Z,67.42
2023-03-03T00:14:18.826Z,68.52
2023-03-03T00:16:47.527Z,67.63
2023-03-03T00:19:17.724Z,67.58
2023-03-03T00:21:51.249Z,68.40
2023-03-03T00:24:27.109Z,68.74
2023-03-03T00:26:57.270Z,68.00
2023-03-03T00:29:24.743Z,68.01
2023-03-03T00:31:52.603Z,67.46
2023-03-03T00:34:28.344Z,68.50
2023-03-03T00:36:57.632Z,67.46
2023-03-03T00:39:32.208Z,67.86
2023-03-03T00:42:00.730Z,67.49
2023-03-03T00:44:34.234Z,68.50
2023-03-03T00:47:31.979Z,68.60
2023-03-03T00:50:05.952Z,67.82
2023-03-03T00:52:39.703Z,67.93
2023-03-03T00:55:08.757Z,68.22
2023-03-03T00:57:36.218Z,67.67
2023-03-03T01:00:06.427Z,67.61
2023-03-03T01:02:34.427Z,67.85
2023-03-03T01:05:01.923Z,67.75
2023-03-03T01:07:30.287Z,67.79
2023-03-03T01:09:57.826Z,68.03
2023-03-03T01:12:25.282Z,68.32
2023-03-03T01:14:55.023Z,67.82
2023-03-03T01:17:23.001Z,68.33
2023-03-03T01:19:50.478Z,68.42
2023-03-03T01:22:18.488Z,68.55
2023-03-03T01:24:45.940Z,68.95
2023-03-03T01:27:13.456Z,69.27
2023-03-03T01:29:40.931Z,69.77
2023-03-03T01:32:08.586Z,70.19
2023-03-03T01:34:36.066Z,69.98
2023-03-03T01:37:03.774Z,70.31
2023-03-03T01:39:31.248Z,70.40
2023-03-03T01:41:58.836Z,70.75
2023-03-03T01:44:27.348Z,70.67
2023-03-03T01:47:03.350Z,70.86
2023-03-03T01:49:39.987Z,71.68
2023-03-03T01:52:24.820Z,71.98
2023-03-03T01:54:57.155Z,70.52
2023-03-03T01:57:38.849Z,71.41
2023-03-03T02:00:07.485Z,70.59
2023-03-03T02:02:42.238Z,70.31
2023-03-03T02:05:10.898Z,70.71
2023-03-03T02:07:39.153Z,71.10
2023-03-03T02:10:12.410Z,70.51
2023-03-03T02:12:56.381Z,71.33
2023-03-03T02:15:28.315Z,70.77
2023-03-03T02:18:11.288Z,70.86
2023-03-03T02:20:42.177Z,70.99
2023-03-03T02:23:27.287Z,70.49
2023-03-03T02:25:59.193Z,71.04
2023-03-03T02:28:33.518Z,70.38
2023-03-03T02:31:11.023Z,70.73
2023-03-03T02:33:41.042Z,70.67
2023-03-03T02:36:21.972Z,71.07
2023-03-03T02:39:30.624Z,72.21
2023-03-03T02:42:03.969Z,71.65
2023-03-03T02:44:38.702Z,70.78
2023-03-03T02:47:06.272Z,71.55
2023-03-03T02:49:35.725Z,72.15
2023-03-03T02:52:09.900Z,72.27
2023-03-03T02:54:39.691Z,71.84
2023-03-03T02:57:09.112Z,72.05
2023-03-03T02:59:36.679Z,72.05
2023-03-03T03:02:12.158Z,71.62
2023-03-03T03:04:39.758Z,71.72
2023-03-03T03:07:07.349Z,71.48
2023-03-03T03:09:37.575Z,71.57
2023-03-03T03:12:05.528Z,71.53
2023-03-03T03:14:35.750Z,71.53
2023-03-03T03:17:03.345Z,71.56
2023-03-03T03:19:30.933Z,71.42
2023-03-03T03:22:01.809Z,71.38
2023-03-03T03:24:30.543Z,71.38
2023-03-03T03:27:03.114Z,71.63
2023-03-03T03:29:30.645Z,71.49
2023-03-03T03:31:58.274Z,71.42
2023-03-03T03:34:25.754Z,71.60
2023-03-03T03:36:54.860Z,71.37
2023-03-03T03:39:24.202Z,71.62
2023-03-03T03:41:53.479Z,71.37
2023-03-03T03:44:24.005Z,71.45
2023-03-03T03:46:52.304Z,71.49
2023-03-03T03:49:20.974Z,71.80
2023-03-03T03:51:50.827Z,71.92
2023-03-03T03:54:21.178Z,71.54
2023-03-03T03:56:50.012Z,72.04
2023-03-03T03:59:17.523Z,71.83
2023-03-03T04:01:45.110Z,71.78
2023-03-03T04:04:12.735Z,72.28
2023-03-03T04:06:41.008Z,71.39
2023-03-03T04:09:08.866Z,72.23
2023-03-03T04:11:36.574Z,72.05
2023-03-03T04:14:06.886Z,72.05
2023-03-03T04:16:36.308Z,71.64
2023-03-03T04:19:04.391Z,71.46
2023-03-03T04:21:34.039Z,71.81
2023-03-03T04:24:03.016Z,71.72
2023-03-03T04:26:31.782Z,71.91
2023-03-03T04:29:01.826Z,71.93
2023-03-03T04:31:30.257Z,72.08
2023-03-03T04:33:58.924Z,72.03
2023-03-03T04:36:27.453Z,71.93
2023-03-03T04:38:55.058Z,71.51
2023-03-03T04:41:24.113Z,71.92
2023-03-03T04:43:51.774Z,72.08
2023-03-03T04:46:19.336Z,71.73
2023-03-03T04:48:46.969Z,71.77
2023-03-03T04:51:18.830Z,71.80
2023-03-03T04:53:46.724Z,71.85
2023-03-03T04:56:15.245Z,71.77
2023-03-03T04:58:43.073Z,72.01
2023-03-03T05:01:17.095Z,72.33
2023-03-03T05:03:45.846Z,71.77
2023-03-03T05:06:13.355Z,71.80
2023-03-03T05:08:43.234Z,71.43
2023-03-03T05:11:11.469Z,71.67
2023-03-03T05:13:39.025Z,71.69
2023-03-03T05:16:07.036Z,71.52
2023-03-03T05:18:34.659Z,71.96
2023-03-03T05:21:02.327Z,71.44
2023-03-03T05:23:30.767Z,71.49
2023-03-03T05:25:58.342Z,70.81
2023-03-03T05:28:25.870Z,71.01
2023-03-03T05:30:53.584Z,70.93
2023-03-03T05:33:21.175Z,70.79
2023-03-03T05:35:53.359Z,70.33
2023-03-03T05:38:21.096Z,70.25
2023-03-03T05:40:48.815Z,70.35
2023-03-03T05:43:16.385Z,70.14
2023-03-03T05:45:44.074Z,69.90
2023-03-03T05:48:12.132Z,69.49
2023-03-03T05:50:40.099Z,69.41
2023-03-03T05:53:07.823Z,69.29
2023-03-03T05:55:35.439Z,69.38
2023-03-03T05:58:02.901Z,68.76
2023-03-03T06:00:30.454Z,68.83
2023-03-03T06:02:58.199Z,68.67
2023-03-03T06:05:26.053Z,68.16
2023-03-03T06:07:53.576Z,68.22
2023-03-03T06:10:21.198Z,67.56
2023-03-03T06:12:52.921Z,67.53
2023-03-03T06:15:20.498Z,66.81
2023-03-03T06:17:48.015Z,66.71
2023-03-03T06:20:15.541Z,66.59
2023-03-03T06:22:43.233Z,66.20
2023-03-03T06:25:10.915Z,66.22
2023-03-03T06:27:38.532Z,65.70
2023-03-03T06:30:06.685Z,65.61
2023-03-03T06:32:34.212Z,65.51
2023-03-03T06:35:01.927Z,65.19
2023-03-03T06:37:29.508Z,64.82
2023-03-03T06:39:57.042Z,64.90
2023-03-03T06:42:25.026Z,64.43
2023-03-03T06:44:55.161Z,64.48
2023-03-03T06:47:22.998Z,64.05
2023-03-03T06:49:50.454Z,64.31
2023-03-03T06:52:23.006Z,63.98
2023-03-03T06:54:54.922Z,63.27
2023-03-03T06:57:31.497Z,63.11
2023-03-03T07:00:25.990Z,62.33
2023-03-03T07:03:01.381Z,62.71
2023-03-03T07:05:29.466Z,62.73
2023-03-03T07:07:57.561Z,62.87
2023-03-03T07:10:28.094Z,62.53
2023-03-03T07:13:01.373Z,62.51
2023-03-03T07:15:36.220Z,62.90
2023-03-03T07:18:10.975Z,62.84
2023-03-03T07:20:41.539Z,62.89
2023-03-03T07:23:25.349Z,62.54
2023-03-03T07:25:53.649Z,62.29
2023-03-03T07:28:23.744Z,62.45
2023-03-03T07:30:56.597Z,62.96
2023-03-03T07:33:38.018Z,62.64
2023-03-03T07:36:22.518Z,62.30
2023-03-03T07:39:02.264Z,62.14
2023-03-03T07:41:30.940Z,62.59
2023-03-03T07:44:19.188Z,62.13
2023-03-03T07:46:51.625Z,62.00
2023-03-03T07:49:40.082Z,61.92
2023-03-03T07:52:31.406Z,61.39
2023-03-03T07:55:38.941Z,60.90
2023-03-03T07:58:16.578Z,60.96
2023-03-03T08:01:05.906Z,61.24
2023-03-03T08:03:37.132Z,60.92
2023-03-03T08:06:29.980Z,60.59
2023-03-03T08:09:10.153Z,60.12
2023-03-03T08:11:48.774Z,60.37
2023-03-03T08:14:19.831Z,60.49
2023-03-03T08:16:47.336Z,59.95
2023-03-03T08:19:18.597Z,59.55
2023-03-03T08:21:46.604Z,59.29
2023-03-03T08:24:14.339Z,58.18
2023-03-03T08:26:41.919Z,58.13
2023-03-03T08:29:12.080Z,57.69
2023-03-03T08:31:41.944Z,57.62
2023-03-03T08:34:09.735Z,57.63
2023-03-03T08:36:37.249Z,57.94
2023-03-03T08:39:05.500Z,57.68
2023-03-03T08:41:33.328Z,57.59
2023-03-03T08:44:00.750Z,57.08
2023-03-03T08:46:28.817Z,56.66
2023-03-03T08:49:54.884Z,56.48
2023-03-03T08:56:22.363Z,56.91
2023-03-03T09:04:01.919Z,57.20
2023-03-03T09:06:30.082Z,57.38
2023-03-03T09:08:57.554Z,57.38
2023-03-03T09:11:28.265Z,57.53
2023-03-03T09:14:14.753Z,57.35
2023-03-03T09:16:52.309Z,56.97
2023-03-03T09:19:30.918Z,56.84
2023-03-03T09:22:20.267Z,56.67
2023-03-03T09:24:49.484Z,57.23
2023-03-03T09:27:25.514Z,57.26
2023-03-03T09:29:53.102Z,56.61
2023-03-03T09:32:39.648Z,56.29
2023-03-03T09:35:40.464Z,56.38
2023-03-03T09:38:32.431Z,55.79
2023-03-03T09:41:28.626Z,54.99
2023-03-03T09:44:17.694Z,55.36
2023-03-03T09:46:51.327Z,55.56
2023-03-03T09:49:57.164Z,55.04
2023-03-03T09:53:00.135Z,55.52
2023-03-03T09:55:49.081Z,55.94
2023-03-03T09:58:19.589Z,55.92
2023-03-03T10:00:56.283Z,55.86
2023-03-03T10:04:08.941Z,55.68
2023-03-03T10:06:45.326Z,55.64
2023-03-03T10:09:31.729Z,54.85
2023-03-03T10:12:04.984Z,55.11
2023-03-03T10:14:38.636Z,55.00
2023-03-03T10:17:32.412Z,54.34
2023-03-03T10:20:54.756Z,55.10
2023-03-03T10:23:40.919Z,55.10
2023-03-03T10:26:44.347Z,55.18
2023-03-03T10:29:37.116Z,54.96
2023-03-03T10:33:00.270Z,55.05
2023-03-03T10:36:04.705Z,53.62
2023-03-03T10:38:56.907Z,51.39
2023-03-03T10:41:39.591Z,48.92
2023-03-03T10:44:22.165Z,44.60
2023-03-03T10:47:08.447Z,45.72
2023-03-03T10:50:05.910Z,46.62
2023-03-03T10:52:43.172Z,47.58
2023-03-03T10:55:16.827Z,48.55
2023-03-03T10:57:47.179Z,49.86
2023-03-03T11:00:50.514Z,50.25
2023-03-03T11:03:33.605Z,51.02
2023-03-03T11:06:16.187Z,52.01
2023-03-03T11:08:50.053Z,52.52
2023-03-03T11:11:35.369Z,53.42
2023-03-03T11:14:16.697Z,53.56
2023-03-03T11:17:04.211Z,53.20
2023-03-03T11:19:40.975Z,53.33
2023-03-03T11:22:25.499Z,52.76
2023-03-03T11:24:56.095Z,52.48
2023-03-03T11:27:44.978Z,51.92
2023-03-03T11:30:27.186Z,52.24
2023-03-03T11:33:15.613Z,52.37
2023-03-03T11:35:47.433Z,52.80
2023-03-03T11:38:36.713Z,53.15
2023-03-03T11:41:31.173Z,53.59
2023-03-03T11:44:05.844Z,53.98
2023-03-03T11:46:57.254Z,54.16
2023-03-03T11:49:33.737Z,54.09
2023-03-03T11:52:13.318Z,54.33
2023-03-03T11:54:54.076Z,54.13
2023-03-03T11:58:01.191Z,54.00
2023-03-03T12:00:40.210Z,53.79
2023-03-03T12:04:05.213Z,53.50
2023-03-03T12:06:56.031Z,52.68
2023-03-03T12:10:01.650Z,53.00
2023-03-03T12:12:38.492Z,53.21
2023-03-03T12:15:38.582Z,53.22
2023-03-03T12:18:45.958Z,53.61
2023-03-03T12:21:45.448Z,53.31
2023-03-03T12:24:27.929Z,52.38
2023-03-03T12:27:23.040Z,52.42
2023-03-03T12:30:38.817Z,52.03
2023-03-03T12:33:38.868Z,52.45
2023-03-03T12:36:31.130Z,53.20
2023-03-03T12:39:13.751Z,53.38
2023-03-03T12:42:06.408Z,53.95
2023-03-03T12:45:06.398Z,54.02
2023-03-03T12:47:39.473Z,54.44
2023-03-03T12:50:19.479Z,54.33
2023-03-03T12:53:02.870Z,54.96
2023-03-03T12:55:53.728Z,55.42
2023-03-03T12:58:24.266Z,55.06
2023-03-03T13:01:18.978Z,55.35
2023-03-03T13:04:08.073Z,55.43
2023-03-03T13:06:51.154Z,55.53
2023-03-03T13:09:40.232Z,55.09
2023-03-03T13:12:15.102Z,55.05
2023-03-03T13:14:51.652Z,55.33
2023-03-03T13:17:31.280Z,54.99
2023-03-03T13:20:01.582Z,54.98
2023-03-03T13:22:52.811Z,55.50
2023-03-03T13:25:23.409Z,55.23
2023-03-03T13:27:56.631Z,54.91
2023-03-03T13:30:28.203Z,54.82
2023-03-03T13:33:25.090Z,54.81
2023-03-03T13:36:11.369Z,54.77
2023-03-03T13:38:46.532Z,55.09
2023-03-03T13:41:26.170Z,54.72
2023-03-03T13:44:13.166Z,54.35
2023-03-03T13:46:55.953Z,54.44
2023-03-03T13:49:58.070Z,54.20
2023-03-03T13:52:32.209Z,54.20
2023-03-03T13:55:09.512Z,54.09
2023-03-03T13:57:40.055Z,54.43
2023-03-03T14:00:22.815Z,54.40
2023-03-03T14:03:19.637Z,54.00
2023-03-03T14:06:02.944Z,54.05
2023-03-03T14:09:12.677Z,54.11
2023-03-03T14:11:47.994Z,54.25
2023-03-03T14:14:18.639Z,54.29
2023-03-03T14:17:01.692Z,53.86
2023-03-03T14:19:39.716Z,54.29
2023-03-03T14:22:25.267Z,53.60
2023-03-03T14:25:11.215Z,53.77
2023-03-03T14:28:00.698Z,53.85
2023-03-03T14:30:35.232Z,53.90
2023-03-03T14:33:08.742Z,53.47
2023-03-03T14:35:39.314Z,53.86
2023-03-03T14:38:14.669Z,53.36
2023-03-03T14:40:45.582Z,53.70
2023-03-03T14:43:33.596Z,53.60
2023-03-03T14:46:20.943Z,53.83
2023-03-03T14:48:56.601Z,53.74
2023-03-03T14:51:38.752Z,53.77
2023-03-03T14:54:15.172Z,54.10
2023-03-03T14:56:59.043Z,54.08
2023-03-03T14:59:28.516Z,54.21
2023-03-03T15:02:18.288Z,53.70
2023-03-03T15:04:47.080Z,54.01
2023-03-03T15:07:35.590Z,54.18
2023-03-03T15:10:07.730Z,54.43
2023-03-03T15:12:42.431Z,54.58
2023-03-03T15:15:21.685Z,54.45
2023-03-03T15:17:54.220Z,54.74
2023-03-03T15:20:32.297Z,54.58
2023-03-03T15:23:27.348Z,54.40
2023-03-03T15:25:56.524Z,54.63
2023-03-03T15:28:44.572Z,54.48
2023-03-03T15:31:49.384Z,54.59
2023-03-03T15:34:28.405Z,54.86
2023-03-03T15:37:29.953Z,54.95
2023-03-03T15:40:04.047Z,54.83
2023-03-03T15:42:53.049Z,55.08
2023-03-03T15:45:32.879Z,54.92
2023-03-03T15:48:00.376Z,54.58
2023-03-03T15:50:57.100Z,54.66
2023-03-03T15:54:14.285Z,55.03
2023-03-03T15:57:04.545Z,54.68
2023-03-03T15:59:51.173Z,54.77
2023-03-03T16:02:24.459Z,54.34
2023-03-03T16:05:22.564Z,54.75
2023-03-03T16:08:02.179Z,54.56
2023-03-03T16:10:37.846Z,54.71
2023-03-03T16:13:42.972Z,54.95
2023-03-03T16:16:23.904Z,55.21
2023-03-03T16:18:51.468Z,54.86
2023-03-03T16:21:22.100Z,54.94
2023-03-03T16:23:59.238Z,54.78
2023-03-03T16:26:37.954Z,54.47
2023-03-03T16:29:35.160Z,54.61
2023-03-03T16:32:06.993Z,54.89
2023-03-03T16:34:46.596Z,55.13
2023-03-03T16:37:36.307Z,54.83
2023-03-03T16:40:20.448Z,54.88
2023-03-03T16:42:53.249Z,54.60
2023-03-03T16:45:26.737Z,54.74
2023-03-03T16:47:57.495Z,54.98
2023-03-03T16:50:49.974Z,54.95
2023-03-03T16:53:34.644Z,54.94
2023-03-03T16:56:08.493Z,54.85
2023-03-03T16:58:51.003Z,54.05
2023-03-03T17:01:27.645Z,54.29
2023-03-03T17:04:10.903Z,54.29
2023-03-03T17:06:54.790Z,54.57
2023-03-03T17:09:51.939Z,54.32
2023-03-03T17:12:48.258Z,54.59
2023-03-03T17:15:37.626Z,54.44
2023-03-03T17:18:38.895Z,55.11
2023-03-03T17:21:32.461Z,55.37
2023-03-03T17:24:18.532Z,55.11
2023-03-03T17:26:56.270Z,55.40
2023-03-03T17:29:44.617Z,55.18
2023-03-03T17:32:51.127Z,55.50
2023-03-03T17:35:28.722Z,55.81
2023-03-03T17:38:06.761Z,55.62
2023-03-03T17:40:52.853Z,55.55
2023-03-03T17:43:52.598Z,55.76
2023-03-03T17:46:32.085Z,55.88
2023-03-03T17:49:08.846Z,56.03
2023-03-03T17:52:13.285Z,56.52
2023-03-03T17:55:06.659Z,56.48
2023-03-03T17:57:34.262Z,56.25
2023-03-03T18:00:04.755Z,56.27
2023-03-03T18:02:51.014Z,57.00
2023-03-03T18:05:52.821Z,57.25
2023-03-03T18:08:48.313Z,56.89
2023-03-03T18:11:16.033Z,56.33
2023-03-03T18:14:07.205Z,56.76
2023-03-03T18:17:12.347Z,57.29
2023-03-03T18:19:59.340Z,56.67
2023-03-03T18:22:32.214Z,56.45
2023-03-03T18:25:14.757Z,56.73
2023-03-03T18:28:05.382Z,57.47
2023-03-03T18:30:59.517Z,56.84
2023-03-03T18:33:43.874Z,56.08
2023-03-03T18:36:15.940Z,55.97
2023-03-03T18:38:48.602Z,55.56
2023-03-03T18:41:27.843Z,55.74
2023-03-03T18:44:30.597Z,55.82
2023-03-03T18:46:59.124Z,55.27
2023-03-03T18:49:48.004Z,55.34
2023-03-03T18:52:23.585Z,55.08
2023-03-03T18:55:11.307Z,55.75
2023-03-03T18:57:40.275Z,55.42
2023-03-03T19:00:28.633Z,55.58
2023-03-03T19:02:58.756Z,55.57
2023-03-03T19:05:34.602Z,55.99
2023-03-03T19:08:14.989Z,56.16
2023-03-03T19:11:03.265Z,56.83
2023-03-03T19:13:33.743Z,56.24
2023-03-03T19:16:02.469Z,56.11
2023-03-03T19:18:53.643Z,56.43
2023-03-03T19:21:36.289Z,57.06
2023-03-03T19:24:26.864Z,56.85
2023-03-03T19:27:03.543Z,57.09
2023-03-03T19:29:46.544Z,57.08
2023-03-03T19:32:20.219Z,57.02
2023-03-03T19:34:57.001Z,57.04
2023-03-03T19:37:52.210Z,57.50
2023-03-03T19:40:34.385Z,57.94
2023-03-03T19:43:14.022Z,58.00
2023-03-03T19:46:23.033Z,58.12
2023-03-03T19:49:01.359Z,58.16
2023-03-03T19:51:51.494Z,58.56
2023-03-03T19:54:44.217Z,58.49
2023-03-03T19:57:20.793Z,58.77
2023-03-03T19:59:58.405Z,58.25
2023-03-03T20:02:28.821Z,58.93
2023-03-03T20:04:56.210Z,58.28
2023-03-03T20:07:30.038Z,58.77
2023-03-03T20:10:30.014Z,59.64
2023-03-03T20:13:06.963Z,59.75
2023-03-03T20:15:38.309Z,59.51
2023-03-03T20:18:24.109Z,60.02
2023-03-03T20:21:36.920Z,60.58
2023-03-03T20:24:41.715Z,60.50
2023-03-03T20:27:19.854Z,60.08
2023-03-03T20:30:21.413Z,60.78
2023-03-03T20:33:14.826Z,61.07
2023-03-03T20:36:00.967Z,60.24
2023-03-03T20:38:52.016Z,60.87
2023-03-03T20:41:50.109Z,61.04
2023-03-03T20:44:23.746Z,60.04
2023-03-03T20:47:17.675Z,60.91
2023-03-03T20:50:15.748Z,60.50
2023-03-03T20:52:52.174Z,60.04
2023-03-03T20:55:24.030Z,60.41
2023-03-03T20:58:18.251Z,60.34
2023-03-03T21:01:04.331Z,60.47
2023-03-03T21:03:43.431Z,60.10
2023-03-03T21:06:15.911Z,60.12
2023-03-03T21:08:57.751Z,60.65
2023-03-03T21:11:31.157Z,59.92
2023-03-03T21:14:00.004Z,60.28
2023-03-03T21:16:30.990Z,60.12
2023-03-03T21:19:13.062Z,60.84
2023-03-03T21:21:46.324Z,60.22
2023-03-03T21:24:19.706Z,60.14
2023-03-03T21:26:47.714Z,60.49
2023-03-03T21:29:22.712Z,60.56
2023-03-03T21:31:56.971Z,60.66
2023-03-03T21:34:27.422Z,60.27
2023-03-03T21:36:56.529Z,60.36
2023-03-03T21:39:32.999Z,61.15
2023-03-03T21:42:04.984Z,60.76
2023-03-03T21:44:51.328Z,61.23
2023-03-03T21:47:28.771Z,61.14
2023-03-03T21:49:56.429Z,60.66
2023-03-03T21:52:24.018Z,60.81
2023-03-03T21:54:55.175Z,60.78
2023-03-03T21:57:22.899Z,60.88
2023-03-03T21:59:50.465Z,60.83
2023-03-03T22:02:18.422Z,61.22
2023-03-03T22:04:46.132Z,60.93
2023-03-03T22:07:13.675Z,61.27
2023-03-03T22:09:41.351Z,60.76
2023-03-03T22:12:08.990Z,61.30
2023-03-03T22:14:36.650Z,61.28
2023-03-03T22:17:05.411Z,61.47
2023-03-03T22:19:34.386Z,61.23
2023-03-03T22:22:04.537Z,61.61
2023-03-03T22:24:32.386Z,61.67
2023-03-03T22:27:00.117Z,61.50
2023-03-03T22:29:28.066Z,61.43
2023-03-03T22:31:58.926Z,61.38
2023-03-03T22:34:29.795Z,61.49
2023-03-03T22:36:57.445Z,61.68
2023-03-03T22:39:24.940Z,61.38
2023-03-03T22:41:55.214Z,62.00
2023-03-03T22:44:23.022Z,61.91
2023-03-03T22:46:50.601Z,61.51
2023-03-03T22:49:18.247Z,61.70
2023-03-03T22:51:46.503Z,61.67
2023-03-03T22:54:13.983Z,61.51
2023-03-03T22:56:41.625Z,62.19
2023-03-03T22:59:11.486Z,62.10
2023-03-03T23:01:39.096Z,62.28
2023-03-03T23:04:06.692Z,62.42
2023-03-03T23:06:34.319Z,62.10
2023-03-03T23:09:02.077Z,62.21
2023-03-03T23:11:29.693Z,61.71
2023-03-03T23:13:57.316Z,61.80
2023-03-03T23:16:25.136Z,61.95
2023-03-03T23:18:52.733Z,62.27
2023-03-03T23:21:20.271Z,62.38
2023-03-03T23:23:47.757Z,62.21
2023-03-03T23:26:15.304Z,62.11
2023-03-03T23:28:42.920Z,62.14
2023-03-03T23:31:10.581Z,62.48
2023-03-03T23:33:38.121Z,62.65
2023-03-03T23:36:06.166Z,62.21
2023-03-03T23:38:33.615Z,62.49
2023-03-03T23:41:01.218Z,62.64
2023-03-03T23:43:28.825Z,62.80
2023-03-03T23:45:56.460Z,63.22
2023-03-03T23:48:24.073Z,63.11
2023-03-03T23:50:51.809Z,63.20
2023-03-03T23:53:19.575Z,63.30
2023-03-03T23:55:47.363Z,63.38
2023-03-03T23:58:14.905Z,63.26
